Terminal Aerodrome Forecast
Issued by NWS

Home | Current Version | Previous Version | Text Only | Print | Product List | Glossary On
Versions: 1 2 3 4 5 6 7 8 9 10 11 12 13 14
000
FTUS46 KSEW 162320
TAFHQM
TAF
KHQM 162320Z 1700/1724 08008KT P6SM OVC050
     FM170600 14014G22KT P6SM -RA OVC040
     FM171200 16015G25KT P6SM -RA OVC025
     FM171800 16015G25KT 4SM RA BR OVC015=

USA.gov is the U.S. government's official web portal to all federal, state and local government web resources and services.